sensor_id;sensor_type;location;lat;lon;timestamp;P1;durP1;ratioP1;P2;durP2;ratioP2
8060;SDS011;4073;42.626;25.386;2023-02-15T00:01:47;25.00;;;17.40;;
8060;SDS011;4073;42.626;25.386;2023-02-15T00:04:14;21.00;;;13.63;;
8060;SDS011;4073;42.626;25.386;2023-02-15T00:06:40;23.37;;;17.73;;
8060;SDS011;4073;42.626;25.386;2023-02-15T00:09:06;21.37;;;15.67;;
8060;SDS011;4073;42.626;25.386;2023-02-15T00:11:31;20.40;;;15.67;;
8060;SDS011;4073;42.626;25.386;2023-02-15T00:16:47;18.20;;;13.17;;
8060;SDS011;4073;42.626;25.386;2023-02-15T00:19:15;21.97;;;15.63;;
8060;SDS011;4073;42.626;25.386;2023-02-15T00:21:45;21.00;;;14.83;;
8060;SDS011;4073;42.626;25.386;2023-02-15T00:24:11;17.83;;;13.57;;
8060;SDS011;4073;42.626;25.386;2023-02-15T00:26:39;17.83;;;13.17;;
8060;SDS011;4073;42.626;25.386;2023-02-15T00:29:06;21.23;;;15.50;;
8060;SDS011;4073;42.626;25.386;2023-02-15T00:31:32;19.63;;;14.00;;
8060;SDS011;4073;42.626;25.386;2023-02-15T00:34:02;16.47;;;11.63;;
8060;SDS011;4073;42.626;25.386;2023-02-15T00:36:32;20.27;;;11.53;;
8060;SDS011;4073;42.626;25.386;2023-02-15T00:38:58;15.80;;;12.20;;
8060;SDS011;4073;42.626;25.386;2023-02-15T00:41:24;17.73;;;12.47;;
8060;SDS011;4073;42.626;25.386;2023-02-15T00:43:49;15.43;;;11.40;;
8060;SDS011;4073;42.626;25.386;2023-02-15T00:46:15;21.17;;;14.57;;
8060;SDS011;4073;42.626;25.386;2023-02-15T00:48:40;25.60;;;18.47;;
8060;SDS011;4073;42.626;25.386;2023-02-15T00:51:06;27.80;;;20.47;;
8060;SDS011;4073;42.626;25.386;2023-02-15T00:53:31;21.00;;;14.80;;
8060;SDS011;4073;42.626;25.386;2023-02-15T00:55:57;21.83;;;16.13;;
8060;SDS011;4073;42.626;25.386;2023-02-15T00:58:23;18.37;;;13.33;;
8060;SDS011;4073;42.626;25.386;2023-02-15T01:00:48;18.60;;;12.60;;
8060;SDS011;4073;42.626;25.386;2023-02-15T01:03:14;19.53;;;13.50;;
8060;SDS011;4073;42.626;25.386;2023-02-15T01:05:41;15.77;;;12.40;;
8060;SDS011;4073;42.626;25.386;2023-02-15T01:08:07;17.73;;;12.03;;
8060;SDS011;4073;42.626;25.386;2023-02-15T01:10:34;18.33;;;12.10;;
8060;SDS011;4073;42.626;25.386;2023-02-15T01:13:00;17.03;;;12.33;;
8060;SDS011;4073;42.626;25.386;2023-02-15T01:15:26;16.50;;;12.37;;
8060;SDS011;4073;42.626;25.386;2023-02-15T01:17:52;16.33;;;11.07;;
8060;SDS011;4073;42.626;25.386;2023-02-15T01:20:22;17.23;;;13.27;;
8060;SDS011;4073;42.626;25.386;2023-02-15T01:22:50;19.00;;;15.13;;
8060;SDS011;4073;42.626;25.386;2023-02-15T01:25:17;16.67;;;12.17;;
8060;SDS011;4073;42.626;25.386;2023-02-15T01:27:43;17.10;;;13.13;;
8060;SDS011;4073;42.626;25.386;2023-02-15T01:30:10;17.47;;;11.47;;
8060;SDS011;4073;42.626;25.386;2023-02-15T01:32:36;18.23;;;12.73;;
8060;SDS011;4073;42.626;25.386;2023-02-15T01:35:02;15.60;;;12.07;;
8060;SDS011;4073;42.626;25.386;2023-02-15T01:37:29;14.77;;;11.43;;
8060;SDS011;4073;42.626;25.386;2023-02-15T01:39:56;21.37;;;15.27;;
8060;SDS011;4073;42.626;25.386;2023-02-15T01:42:24;20.07;;;15.67;;
8060;SDS011;4073;42.626;25.386;2023-02-15T01:44:55;17.47;;;12.40;;
8060;SDS011;4073;42.626;25.386;2023-02-15T01:47:36;21.70;;;16.50;;
8060;SDS011;4073;42.626;25.386;2023-02-15T01:52:46;19.93;;;14.47;;
8060;SDS011;4073;42.626;25.386;2023-02-15T01:55:20;21.43;;;14.53;;
8060;SDS011;4073;42.626;25.386;2023-02-15T01:57:47;21.40;;;15.43;;
8060;SDS011;4073;42.626;25.386;2023-02-15T02:00:13;26.30;;;18.73;;
8060;SDS011;4073;42.626;25.386;2023-02-15T02:02:41;19.43;;;13.90;;
8060;SDS011;4073;42.626;25.386;2023-02-15T02:05:10;21.60;;;14.80;;
8060;SDS011;4073;42.626;25.386;2023-02-15T02:07:39;16.50;;;11.77;;
8060;SDS011;4073;42.626;25.386;2023-02-15T02:10:08;17.20;;;11.80;;
8060;SDS011;4073;42.626;25.386;2023-02-15T02:12:35;11.90;;;10.27;;
8060;SDS011;4073;42.626;25.386;2023-02-15T02:15:04;20.83;;;14.63;;
8060;SDS011;4073;42.626;25.386;2023-02-15T02:25:49;14.37;;;11.33;;
8060;SDS011;4073;42.626;25.386;2023-02-15T02:34:27;19.38;;;13.07;;
8060;SDS011;4073;42.626;25.386;2023-02-15T02:50:21;22.63;;;15.07;;
8060;SDS011;4073;42.626;25.386;2023-02-15T02:52:52;26.52;;;15.90;;
8060;SDS011;4073;42.626;25.386;2023-02-15T02:55:20;23.42;;;15.20;;
8060;SDS011;4073;42.626;25.386;2023-02-15T02:58:01;19.13;;;12.00;;
8060;SDS011;4073;42.626;25.386;2023-02-15T03:00:46;20.25;;;12.35;;
8060;SDS011;4073;42.626;25.386;2023-02-15T03:05:57;18.65;;;12.00;;
8060;SDS011;4073;42.626;25.386;2023-02-15T03:08:26;17.90;;;12.23;;
8060;SDS011;4073;42.626;25.386;2023-02-15T03:10:58;21.98;;;14.10;;
8060;SDS011;4073;42.626;25.386;2023-02-15T03:13:25;19.58;;;13.30;;
8060;SDS011;4073;42.626;25.386;2023-02-15T03:15:52;18.05;;;12.00;;
8060;SDS011;4073;42.626;25.386;2023-02-15T03:18:39;16.45;;;12.40;;
8060;SDS011;4073;42.626;25.386;2023-02-15T03:21:17;18.13;;;13.18;;
8060;SDS011;4073;42.626;25.386;2023-02-15T03:23:52;19.92;;;12.35;;
8060;SDS011;4073;42.626;25.386;2023-02-15T03:26:21;19.13;;;11.95;;
8060;SDS011;4073;42.626;25.386;2023-02-15T03:28:49;15.80;;;11.70;;
8060;SDS011;4073;42.626;25.386;2023-02-15T03:31:19;18.67;;;13.38;;
8060;SDS011;4073;42.626;25.386;2023-02-15T03:33:55;20.58;;;13.60;;
8060;SDS011;4073;42.626;25.386;2023-02-15T03:39:19;15.77;;;11.32;;
8060;SDS011;4073;42.626;25.386;2023-02-15T03:41:55;16.67;;;12.25;;
8060;SDS011;4073;42.626;25.386;2023-02-15T03:44:29;16.55;;;11.63;;
8060;SDS011;4073;42.626;25.386;2023-02-15T03:47:06;21.05;;;12.82;;
8060;SDS011;4073;42.626;25.386;2023-02-15T03:49:49;17.73;;;11.50;;
8060;SDS011;4073;42.626;25.386;2023-02-15T03:52:19;15.35;;;11.65;;
8060;SDS011;4073;42.626;25.386;2023-02-15T03:54:46;15.85;;;12.00;;
8060;SDS011;4073;42.626;25.386;2023-02-15T04:00:14;15.45;;;11.73;;
8060;SDS011;4073;42.626;25.386;2023-02-15T04:05:48;19.27;;;13.23;;
8060;SDS011;4073;42.626;25.386;2023-02-15T04:08:14;19.93;;;15.43;;
8060;SDS011;4073;42.626;25.386;2023-02-15T04:10:39;20.77;;;13.90;;
8060;SDS011;4073;42.626;25.386;2023-02-15T04:13:17;21.52;;;13.80;;
8060;SDS011;4073;42.626;25.386;2023-02-15T04:16:03;20.45;;;13.60;;
8060;SDS011;4073;42.626;25.386;2023-02-15T04:18:30;22.03;;;14.50;;
8060;SDS011;4073;42.626;25.386;2023-02-15T04:21:23;22.90;;;15.40;;
8060;SDS011;4073;42.626;25.386;2023-02-15T04:24:08;21.90;;;15.13;;
8060;SDS011;4073;42.626;25.386;2023-02-15T04:26:52;24.73;;;15.77;;
8060;SDS011;4073;42.626;25.386;2023-02-15T04:29:21;35.33;;;22.05;;
8060;SDS011;4073;42.626;25.386;2023-02-15T04:31:49;28.60;;;19.00;;
8060;SDS011;4073;42.626;25.386;2023-02-15T04:34:15;26.03;;;17.67;;
8060;SDS011;4073;42.626;25.386;2023-02-15T04:36:41;23.83;;;17.10;;
8060;SDS011;4073;42.626;25.386;2023-02-15T04:39:07;31.55;;;20.52;;
8060;SDS011;4073;42.626;25.386;2023-02-15T04:41:33;24.02;;;16.63;;
8060;SDS011;4073;42.626;25.386;2023-02-15T04:43:59;26.38;;;17.42;;
8060;SDS011;4073;42.626;25.386;2023-02-15T04:46:25;28.30;;;17.60;;
8060;SDS011;4073;42.626;25.386;2023-02-15T04:48:52;24.30;;;15.85;;
8060;SDS011;4073;42.626;25.386;2023-02-15T04:51:17;23.00;;;16.10;;
8060;SDS011;4073;42.626;25.386;2023-02-15T04:53:43;28.27;;;16.90;;
8060;SDS011;4073;42.626;25.386;2023-02-15T04:56:08;29.13;;;19.07;;
8060;SDS011;4073;42.626;25.386;2023-02-15T04:58:33;20.70;;;14.67;;
8060;SDS011;4073;42.626;25.386;2023-02-15T05:01:00;23.35;;;13.98;;
8060;SDS011;4073;42.626;25.386;2023-02-15T05:03:26;19.57;;;12.67;;
8060;SDS011;4073;42.626;25.386;2023-02-15T05:05:51;18.17;;;12.00;;
8060;SDS011;4073;42.626;25.386;2023-02-15T05:08:17;23.27;;;15.10;;
8060;SDS011;4073;42.626;25.386;2023-02-15T05:10:42;22.40;;;15.53;;
8060;SDS011;4073;42.626;25.386;2023-02-15T05:13:08;20.00;;;14.03;;
8060;SDS011;4073;42.626;25.386;2023-02-15T05:15:33;19.30;;;13.03;;
8060;SDS011;4073;42.626;25.386;2023-02-15T05:17:59;19.07;;;12.17;;
8060;SDS011;4073;42.626;25.386;2023-02-15T05:20:26;17.48;;;13.18;;
8060;SDS011;4073;42.626;25.386;2023-02-15T05:22:55;18.23;;;13.30;;
8060;SDS011;4073;42.626;25.386;2023-02-15T05:25:20;20.02;;;14.25;;
8060;SDS011;4073;42.626;25.386;2023-02-15T05:28:04;19.95;;;14.13;;
8060;SDS011;4073;42.626;25.386;2023-02-15T05:30:48;22.00;;;15.27;;
8060;SDS011;4073;42.626;25.386;2023-02-15T05:33:29;17.70;;;13.13;;
8060;SDS011;4073;42.626;25.386;2023-02-15T05:35:55;21.50;;;13.87;;
8060;SDS011;4073;42.626;25.386;2023-02-15T05:38:20;18.10;;;12.27;;
8060;SDS011;4073;42.626;25.386;2023-02-15T05:40:46;19.27;;;12.83;;
8060;SDS011;4073;42.626;25.386;2023-02-15T05:43:11;19.10;;;12.10;;
8060;SDS011;4073;42.626;25.386;2023-02-15T05:45:36;19.20;;;13.13;;
8060;SDS011;4073;42.626;25.386;2023-02-15T05:48:02;19.23;;;13.27;;
8060;SDS011;4073;42.626;25.386;2023-02-15T05:50:27;21.17;;;13.83;;
8060;SDS011;4073;42.626;25.386;2023-02-15T05:52:53;17.07;;;13.93;;
8060;SDS011;4073;42.626;25.386;2023-02-15T05:55:19;20.37;;;15.40;;
8060;SDS011;4073;42.626;25.386;2023-02-15T05:57:44;18.87;;;14.63;;
8060;SDS011;4073;42.626;25.386;2023-02-15T06:00:10;21.17;;;14.80;;
8060;SDS011;4073;42.626;25.386;2023-02-15T06:02:37;23.40;;;17.07;;
8060;SDS011;4073;42.626;25.386;2023-02-15T06:05:03;27.80;;;18.70;;
8060;SDS011;4073;42.626;25.386;2023-02-15T06:07:29;28.57;;;20.43;;
8060;SDS011;4073;42.626;25.386;2023-02-15T06:09:55;21.00;;;14.33;;
8060;SDS011;4073;42.626;25.386;2023-02-15T06:12:20;21.77;;;14.70;;
8060;SDS011;4073;42.626;25.386;2023-02-15T06:14:46;26.57;;;16.17;;
8060;SDS011;4073;42.626;25.386;2023-02-15T06:17:11;17.97;;;14.90;;
8060;SDS011;4073;42.626;25.386;2023-02-15T06:19:37;19.53;;;13.73;;
8060;SDS011;4073;42.626;25.386;2023-02-15T06:22:02;26.50;;;15.17;;
8060;SDS011;4073;42.626;25.386;2023-02-15T06:24:28;21.97;;;14.80;;
8060;SDS011;4073;42.626;25.386;2023-02-15T06:26:53;19.27;;;14.13;;
8060;SDS011;4073;42.626;25.386;2023-02-15T06:29:19;20.20;;;14.20;;
8060;SDS011;4073;42.626;25.386;2023-02-15T06:31:44;23.27;;;14.83;;
8060;SDS011;4073;42.626;25.386;2023-02-15T06:34:09;25.47;;;16.97;;
8060;SDS011;4073;42.626;25.386;2023-02-15T06:36:35;20.03;;;15.17;;
8060;SDS011;4073;42.626;25.386;2023-02-15T06:39:01;23.97;;;14.53;;
8060;SDS011;4073;42.626;25.386;2023-02-15T06:41:28;17.77;;;13.73;;
8060;SDS011;4073;42.626;25.386;2023-02-15T06:43:53;19.93;;;14.97;;
8060;SDS011;4073;42.626;25.386;2023-02-15T06:46:18;20.67;;;15.03;;
8060;SDS011;4073;42.626;25.386;2023-02-15T06:48:44;25.90;;;14.97;;
8060;SDS011;4073;42.626;25.386;2023-02-15T06:51:10;21.20;;;16.07;;
8060;SDS011;4073;42.626;25.386;2023-02-15T06:53:35;20.93;;;14.33;;
8060;SDS011;4073;42.626;25.386;2023-02-15T06:56:01;24.77;;;17.20;;
8060;SDS011;4073;42.626;25.386;2023-02-15T06:58:28;20.37;;;15.23;;
8060;SDS011;4073;42.626;25.386;2023-02-15T07:00:53;22.47;;;15.17;;
8060;SDS011;4073;42.626;25.386;2023-02-15T07:03:19;25.17;;;17.70;;
8060;SDS011;4073;42.626;25.386;2023-02-15T07:05:44;24.20;;;18.57;;
8060;SDS011;4073;42.626;25.386;2023-02-15T07:08:10;27.20;;;20.07;;
8060;SDS011;4073;42.626;25.386;2023-02-15T07:10:36;26.93;;;18.90;;
8060;SDS011;4073;42.626;25.386;2023-02-15T07:13:01;32.83;;;20.83;;
8060;SDS011;4073;42.626;25.386;2023-02-15T07:15:26;36.17;;;23.27;;
8060;SDS011;4073;42.626;25.386;2023-02-15T07:17:52;28.43;;;19.20;;
8060;SDS011;4073;42.626;25.386;2023-02-15T07:20:19;28.30;;;18.90;;
8060;SDS011;4073;42.626;25.386;2023-02-15T07:22:46;28.50;;;19.93;;
8060;SDS011;4073;42.626;25.386;2023-02-15T07:25:12;30.57;;;20.30;;
8060;SDS011;4073;42.626;25.386;2023-02-15T07:27:37;31.83;;;19.80;;
8060;SDS011;4073;42.626;25.386;2023-02-15T07:30:04;26.37;;;18.17;;
8060;SDS011;4073;42.626;25.386;2023-02-15T07:32:31;25.63;;;17.93;;
8060;SDS011;4073;42.626;25.386;2023-02-15T07:34:57;22.97;;;16.37;;
8060;SDS011;4073;42.626;25.386;2023-02-15T07:37:24;25.87;;;17.53;;
8060;SDS011;4073;42.626;25.386;2023-02-15T07:39:50;25.67;;;18.77;;
8060;SDS011;4073;42.626;25.386;2023-02-15T07:42:15;19.53;;;16.60;;
8060;SDS011;4073;42.626;25.386;2023-02-15T07:44:40;19.83;;;15.53;;
8060;SDS011;4073;42.626;25.386;2023-02-15T07:47:06;23.17;;;15.13;;
8060;SDS011;4073;42.626;25.386;2023-02-15T07:49:31;21.07;;;16.13;;
8060;SDS011;4073;42.626;25.386;2023-02-15T07:51:57;16.07;;;13.50;;
8060;SDS011;4073;42.626;25.386;2023-02-15T07:54:22;17.97;;;14.27;;
8060;SDS011;4073;42.626;25.386;2023-02-15T07:56:48;20.87;;;15.27;;
8060;SDS011;4073;42.626;25.386;2023-02-15T07:59:13;16.87;;;13.63;;
8060;SDS011;4073;42.626;25.386;2023-02-15T08:01:39;18.80;;;16.00;;
8060;SDS011;4073;42.626;25.386;2023-02-15T08:04:05;18.93;;;15.67;;
8060;SDS011;4073;42.626;25.386;2023-02-15T08:06:33;18.47;;;16.43;;
8060;SDS011;4073;42.626;25.386;2023-02-15T08:09:00;18.67;;;16.33;;
8060;SDS011;4073;42.626;25.386;2023-02-15T08:11:29;18.13;;;15.80;;
8060;SDS011;4073;42.626;25.386;2023-02-15T08:14:13;20.43;;;17.47;;
8060;SDS011;4073;42.626;25.386;2023-02-15T08:16:42;19.73;;;16.37;;
8060;SDS011;4073;42.626;25.386;2023-02-15T08:24:17;25.10;;;18.97;;
8060;SDS011;4073;42.626;25.386;2023-02-15T08:26:44;21.33;;;18.83;;
8060;SDS011;4073;42.626;25.386;2023-02-15T08:29:11;23.17;;;19.37;;
8060;SDS011;4073;42.626;25.386;2023-02-15T08:31:37;32.50;;;22.40;;
8060;SDS011;4073;42.626;25.386;2023-02-15T08:34:03;20.13;;;17.57;;
8060;SDS011;4073;42.626;25.386;2023-02-15T08:36:30;16.40;;;14.67;;
8060;SDS011;4073;42.626;25.386;2023-02-15T08:38:57;17.13;;;15.33;;
8060;SDS011;4073;42.626;25.386;2023-02-15T08:41:24;17.63;;;15.63;;
8060;SDS011;4073;42.626;25.386;2023-02-15T08:43:52;12.83;;;11.50;;
8060;SDS011;4073;42.626;25.386;2023-02-15T08:46:19;14.50;;;12.07;;
8060;SDS011;4073;42.626;25.386;2023-02-15T08:48:46;13.73;;;12.30;;
8060;SDS011;4073;42.626;25.386;2023-02-15T08:51:16;13.10;;;11.80;;
8060;SDS011;4073;42.626;25.386;2023-02-15T08:53:50;13.60;;;12.20;;
8060;SDS011;4073;42.626;25.386;2023-02-15T08:56:19;18.67;;;15.47;;
8060;SDS011;4073;42.626;25.386;2023-02-15T08:58:46;14.57;;;12.77;;
8060;SDS011;4073;42.626;25.386;2023-02-15T09:01:19;14.93;;;12.07;;
8060;SDS011;4073;42.626;25.386;2023-02-15T09:03:47;14.60;;;12.83;;
8060;SDS011;4073;42.626;25.386;2023-02-15T09:06:14;14.23;;;12.73;;
8060;SDS011;4073;42.626;25.386;2023-02-15T09:08:41;11.70;;;10.37;;
8060;SDS011;4073;42.626;25.386;2023-02-15T09:11:08;13.97;;;11.63;;
8060;SDS011;4073;42.626;25.386;2023-02-15T09:13:35;12.13;;;10.47;;
8060;SDS011;4073;42.626;25.386;2023-02-15T09:16:02;12.83;;;10.27;;
8060;SDS011;4073;42.626;25.386;2023-02-15T09:18:30;11.87;;;10.17;;
8060;SDS011;4073;42.626;25.386;2023-02-15T09:21:03;11.20;;;10.00;;
8060;SDS011;4073;42.626;25.386;2023-02-15T09:23:39;14.37;;;11.37;;
8060;SDS011;4073;42.626;25.386;2023-02-15T09:26:07;12.40;;;10.53;;
8060;SDS011;4073;42.626;25.386;2023-02-15T09:28:34;10.43;;;9.33;;
8060;SDS011;4073;42.626;25.386;2023-02-15T09:31:07;12.57;;;10.83;;
8060;SDS011;4073;42.626;25.386;2023-02-15T09:33:34;12.13;;;10.83;;
8060;SDS011;4073;42.626;25.386;2023-02-15T09:36:01;12.57;;;11.23;;
8060;SDS011;4073;42.626;25.386;2023-02-15T09:38:27;12.00;;;10.40;;
8060;SDS011;4073;42.626;25.386;2023-02-15T09:40:57;12.90;;;10.70;;
8060;SDS011;4073;42.626;25.386;2023-02-15T09:44:11;13.50;;;11.83;;
8060;SDS011;4073;42.626;25.386;2023-02-15T09:46:43;14.00;;;12.50;;
8060;SDS011;4073;42.626;25.386;2023-02-15T09:59:50;13.43;;;11.30;;
8060;SDS011;4073;42.626;25.386;2023-02-15T10:08:24;14.03;;;11.37;;
8060;SDS011;4073;42.626;25.386;2023-02-15T10:10:34;13.87;;;11.03;;
8060;SDS011;4073;42.626;25.386;2023-02-15T10:27:30;13.07;;;10.17;;
8060;SDS011;4073;42.626;25.386;2023-02-15T10:30:02;12.73;;;10.63;;
8060;SDS011;4073;42.626;25.386;2023-02-15T10:32:40;12.57;;;9.80;;
8060;SDS011;4073;42.626;25.386;2023-02-15T10:40:42;12.83;;;9.67;;
8060;SDS011;4073;42.626;25.386;2023-02-15T10:43:41;12.63;;;10.30;;
8060;SDS011;4073;42.626;25.386;2023-02-15T10:46:33;12.40;;;9.63;;
8060;SDS011;4073;42.626;25.386;2023-02-15T10:51:49;10.93;;;9.30;;
8060;SDS011;4073;42.626;25.386;2023-02-15T10:57:19;11.73;;;9.07;;
8060;SDS011;4073;42.626;25.386;2023-02-15T11:00:12;11.43;;;9.73;;
8060;SDS011;4073;42.626;25.386;2023-02-15T11:05:41;13.30;;;11.63;;
8060;SDS011;4073;42.626;25.386;2023-02-15T11:08:18;12.93;;;9.63;;
8060;SDS011;4073;42.626;25.386;2023-02-15T11:10:59;11.87;;;9.17;;
8060;SDS011;4073;42.626;25.386;2023-02-15T11:13:32;14.27;;;11.20;;
8060;SDS011;4073;42.626;25.386;2023-02-15T11:16:06;11.70;;;9.50;;
8060;SDS011;4073;42.626;25.386;2023-02-15T11:18:41;12.17;;;10.90;;
8060;SDS011;4073;42.626;25.386;2023-02-15T11:23:53;9.53;;;8.43;;
8060;SDS011;4073;42.626;25.386;2023-02-15T11:26:36;11.33;;;9.17;;
8060;SDS011;4073;42.626;25.386;2023-02-15T11:31:45;11.80;;;10.03;;
8060;SDS011;4073;42.626;25.386;2023-02-15T11:34:35;13.50;;;8.90;;
8060;SDS011;4073;42.626;25.386;2023-02-15T11:37:07;11.77;;;9.33;;
8060;SDS011;4073;42.626;25.386;2023-02-15T11:39:37;11.80;;;9.47;;
8060;SDS011;4073;42.626;25.386;2023-02-15T11:42:11;8.50;;;7.50;;
8060;SDS011;4073;42.626;25.386;2023-02-15T11:47:39;10.10;;;6.17;;
8060;SDS011;4073;42.626;25.386;2023-02-15T11:50:05;8.47;;;6.57;;
8060;SDS011;4073;42.626;25.386;2023-02-15T11:52:31;9.43;;;6.60;;
8060;SDS011;4073;42.626;25.386;2023-02-15T11:54:57;8.83;;;6.30;;
8060;SDS011;4073;42.626;25.386;2023-02-15T11:57:25;7.50;;;6.10;;
8060;SDS011;4073;42.626;25.386;2023-02-15T12:00:16;8.13;;;6.13;;
8060;SDS011;4073;42.626;25.386;2023-02-15T12:02:52;7.73;;;6.10;;
8060;SDS011;4073;42.626;25.386;2023-02-15T12:05:20;7.63;;;6.13;;
8060;SDS011;4073;42.626;25.386;2023-02-15T12:07:52;7.93;;;6.60;;
8060;SDS011;4073;42.626;25.386;2023-02-15T12:10:32;11.83;;;7.07;;
8060;SDS011;4073;42.626;25.386;2023-02-15T12:13:08;7.30;;;6.50;;
8060;SDS011;4073;42.626;25.386;2023-02-15T12:15:34;6.87;;;6.00;;
8060;SDS011;4073;42.626;25.386;2023-02-15T12:18:01;7.67;;;6.43;;
8060;SDS011;4073;42.626;25.386;2023-02-15T12:20:30;7.83;;;7.03;;
8060;SDS011;4073;42.626;25.386;2023-02-15T12:23:00;8.00;;;6.40;;
8060;SDS011;4073;42.626;25.386;2023-02-15T12:30:59;9.67;;;7.50;;
8060;SDS011;4073;42.626;25.386;2023-02-15T12:33:38;8.20;;;7.27;;
8060;SDS011;4073;42.626;25.386;2023-02-15T12:36:20;7.23;;;6.53;;
8060;SDS011;4073;42.626;25.386;2023-02-15T12:44:19;9.63;;;7.30;;
8060;SDS011;4073;42.626;25.386;2023-02-15T12:49:32;9.40;;;6.57;;
8060;SDS011;4073;42.626;25.386;2023-02-15T12:52:00;11.70;;;7.33;;
8060;SDS011;4073;42.626;25.386;2023-02-15T12:54:32;8.57;;;7.00;;
8060;SDS011;4073;42.626;25.386;2023-02-15T12:57:02;8.97;;;6.87;;
8060;SDS011;4073;42.626;25.386;2023-02-15T13:08:03;8.97;;;7.37;;
8060;SDS011;4073;42.626;25.386;2023-02-15T13:10:37;9.77;;;7.73;;
8060;SDS011;4073;42.626;25.386;2023-02-15T13:13:16;7.73;;;6.83;;
8060;SDS011;4073;42.626;25.386;2023-02-15T13:15:48;9.10;;;7.37;;
8060;SDS011;4073;42.626;25.386;2023-02-15T13:18:19;8.33;;;6.53;;
8060;SDS011;4073;42.626;25.386;2023-02-15T13:21:00;8.63;;;7.43;;
8060;SDS011;4073;42.626;25.386;2023-02-15T13:23:55;12.87;;;9.80;;
8060;SDS011;4073;42.626;25.386;2023-02-15T13:26:25;7.63;;;6.57;;
8060;SDS011;4073;42.626;25.386;2023-02-15T13:29:08;7.93;;;6.57;;
8060;SDS011;4073;42.626;25.386;2023-02-15T13:31:50;8.83;;;6.93;;
8060;SDS011;4073;42.626;25.386;2023-02-15T13:34:22;8.83;;;7.50;;
8060;SDS011;4073;42.626;25.386;2023-02-15T13:36:54;9.40;;;8.27;;
8060;SDS011;4073;42.626;25.386;2023-02-15T13:39:58;8.00;;;7.20;;
8060;SDS011;4073;42.626;25.386;2023-02-15T13:42:42;9.00;;;7.13;;
8060;SDS011;4073;42.626;25.386;2023-02-15T13:56:33;8.87;;;7.37;;
8060;SDS011;4073;42.626;25.386;2023-02-15T13:59:12;9.93;;;7.93;;
8060;SDS011;4073;42.626;25.386;2023-02-15T14:04:48;8.50;;;7.20;;
8060;SDS011;4073;42.626;25.386;2023-02-15T14:21:50;8.40;;;6.67;;
8060;SDS011;4073;42.626;25.386;2023-02-15T14:24:27;8.67;;;6.87;;
8060;SDS011;4073;42.626;25.386;2023-02-15T14:32:00;7.90;;;6.53;;
8060;SDS011;4073;42.626;25.386;2023-02-15T14:34:44;9.83;;;7.20;;
8060;SDS011;4073;42.626;25.386;2023-02-15T14:37:14;10.00;;;8.33;;
8060;SDS011;4073;42.626;25.386;2023-02-15T14:39:47;10.97;;;7.70;;
8060;SDS011;4073;42.626;25.386;2023-02-15T14:42:56;11.57;;;7.83;;
8060;SDS011;4073;42.626;25.386;2023-02-15T14:45:49;7.70;;;6.77;;
8060;SDS011;4073;42.626;25.386;2023-02-15T14:48:20;10.50;;;6.97;;
8060;SDS011;4073;42.626;25.386;2023-02-15T14:51:03;9.30;;;7.50;;
8060;SDS011;4073;42.626;25.386;2023-02-15T15:03:57;11.90;;;7.33;;
8060;SDS011;4073;42.626;25.386;2023-02-15T15:09:20;9.20;;;7.43;;
8060;SDS011;4073;42.626;25.386;2023-02-15T15:11:54;8.97;;;7.60;;
8060;SDS011;4073;42.626;25.386;2023-02-15T15:14:38;8.77;;;7.57;;
8060;SDS011;4073;42.626;25.386;2023-02-15T15:17:12;9.10;;;7.17;;
8060;SDS011;4073;42.626;25.386;2023-02-15T15:20:41;9.73;;;7.00;;
8060;SDS011;4073;42.626;25.386;2023-02-15T15:28:05;8.23;;;7.37;;
8060;SDS011;4073;42.626;25.386;2023-02-15T15:41:16;15.63;;;11.73;;
8060;SDS011;4073;42.626;25.386;2023-02-15T15:49:45;13.93;;;10.43;;
8060;SDS011;4073;42.626;25.386;2023-02-15T15:52:17;15.17;;;10.87;;
8060;SDS011;4073;42.626;25.386;2023-02-15T15:54:46;15.17;;;10.47;;
8060;SDS011;4073;42.626;25.386;2023-02-15T15:57:34;12.47;;;10.00;;
8060;SDS011;4073;42.626;25.386;2023-02-15T16:00:04;15.80;;;12.30;;
8060;SDS011;4073;42.626;25.386;2023-02-15T16:02:52;16.33;;;11.73;;
8060;SDS011;4073;42.626;25.386;2023-02-15T16:05:18;31.37;;;20.50;;
8060;SDS011;4073;42.626;25.386;2023-02-15T16:07:44;36.17;;;26.27;;
8060;SDS011;4073;42.626;25.386;2023-02-15T16:10:20;22.23;;;15.13;;
8060;SDS011;4073;42.626;25.386;2023-02-15T16:12:48;18.33;;;11.03;;
8060;SDS011;4073;42.626;25.386;2023-02-15T16:17:56;20.17;;;13.37;;
8060;SDS011;4073;42.626;25.386;2023-02-15T16:20:24;14.23;;;10.60;;
8060;SDS011;4073;42.626;25.386;2023-02-15T16:25:55;17.13;;;12.37;;
8060;SDS011;4073;42.626;25.386;2023-02-15T16:28:49;12.13;;;9.93;;
8060;SDS011;4073;42.626;25.386;2023-02-15T16:31:16;14.77;;;11.30;;
8060;SDS011;4073;42.626;25.386;2023-02-15T16:33:43;20.37;;;13.50;;
8060;SDS011;4073;42.626;25.386;2023-02-15T16:36:19;28.03;;;19.03;;
8060;SDS011;4073;42.626;25.386;2023-02-15T16:39:05;30.47;;;23.40;;
8060;SDS011;4073;42.626;25.386;2023-02-15T16:41:32;32.87;;;23.10;;
8060;SDS011;4073;42.626;25.386;2023-02-15T16:44:11;30.80;;;20.23;;
8060;SDS011;4073;42.626;25.386;2023-02-15T16:46:42;20.57;;;16.70;;
8060;SDS011;4073;42.626;25.386;2023-02-15T16:49:17;28.57;;;17.73;;
8060;SDS011;4073;42.626;25.386;2023-02-15T16:51:54;24.30;;;18.23;;
8060;SDS011;4073;42.626;25.386;2023-02-15T16:54:22;20.83;;;15.27;;
8060;SDS011;4073;42.626;25.386;2023-02-15T16:56:49;31.93;;;25.17;;
8060;SDS011;4073;42.626;25.386;2023-02-15T17:01:58;31.47;;;24.83;;
8060;SDS011;4073;42.626;25.386;2023-02-15T17:07:01;19.10;;;14.30;;
8060;SDS011;4073;42.626;25.386;2023-02-15T17:09:51;28.13;;;21.10;;
8060;SDS011;4073;42.626;25.386;2023-02-15T17:13:01;41.43;;;28.97;;
8060;SDS011;4073;42.626;25.386;2023-02-15T17:17:56;20.73;;;14.27;;
8060;SDS011;4073;42.626;25.386;2023-02-15T17:20:24;21.50;;;16.43;;
8060;SDS011;4073;42.626;25.386;2023-02-15T17:22:50;32.30;;;18.73;;
8060;SDS011;4073;42.626;25.386;2023-02-15T17:25:18;35.50;;;25.33;;
8060;SDS011;4073;42.626;25.386;2023-02-15T17:27:50;32.70;;;25.10;;
8060;SDS011;4073;42.626;25.386;2023-02-15T17:30:22;30.23;;;24.47;;
8060;SDS011;4073;42.626;25.386;2023-02-15T17:33:00;42.13;;;31.10;;
8060;SDS011;4073;42.626;25.386;2023-02-15T17:35:28;36.47;;;30.73;;
8060;SDS011;4073;42.626;25.386;2023-02-15T17:38:05;39.53;;;33.30;;
8060;SDS011;4073;42.626;25.386;2023-02-15T17:40:40;32.93;;;28.40;;
8060;SDS011;4073;42.626;25.386;2023-02-15T17:43:05;39.43;;;32.57;;
8060;SDS011;4073;42.626;25.386;2023-02-15T17:45:32;37.77;;;28.90;;
8060;SDS011;4073;42.626;25.386;2023-02-15T17:48:01;51.03;;;31.80;;
8060;SDS011;4073;42.626;25.386;2023-02-15T17:50:28;45.70;;;31.83;;
8060;SDS011;4073;42.626;25.386;2023-02-15T17:52:54;42.03;;;31.47;;
8060;SDS011;4073;42.626;25.386;2023-02-15T17:55:22;40.60;;;31.23;;
8060;SDS011;4073;42.626;25.386;2023-02-15T17:58:04;46.23;;;35.20;;
8060;SDS011;4073;42.626;25.386;2023-02-15T18:00:31;47.93;;;35.27;;
8060;SDS011;4073;42.626;25.386;2023-02-15T18:03:18;100.63;;;60.37;;
8060;SDS011;4073;42.626;25.386;2023-02-15T18:06:02;78.00;;;51.93;;
8060;SDS011;4073;42.626;25.386;2023-02-15T18:08:46;94.23;;;59.40;;
8060;SDS011;4073;42.626;25.386;2023-02-15T18:11:30;81.47;;;56.93;;
8060;SDS011;4073;42.626;25.386;2023-02-15T18:14:05;75.93;;;52.27;;
8060;SDS011;4073;42.626;25.386;2023-02-15T18:16:33;84.93;;;56.40;;
8060;SDS011;4073;42.626;25.386;2023-02-15T18:19:01;67.03;;;46.10;;
8060;SDS011;4073;42.626;25.386;2023-02-15T18:21:29;67.73;;;47.20;;
8060;SDS011;4073;42.626;25.386;2023-02-15T18:23:56;61.17;;;44.60;;
8060;SDS011;4073;42.626;25.386;2023-02-15T18:26:22;73.50;;;46.03;;
8060;SDS011;4073;42.626;25.386;2023-02-15T18:28:50;81.47;;;48.77;;